Time;durP1;ratioP1;P1;durP2;ratioP2;P2;SDS_P1;SDS_P2;PMS_P1;PMS_P2;Temp;Humidity;BMP_temperature;BMP_pressure;BME280_temperature;BME280_humidity;BME280_pressure;Samples;Min_cycle;Max_cycle;Signal;HPM_P1;HPM_P2
2021/03/21 00:06:32;;;;;;;3.47;3.00;;;;;;;;;;4594985;28;20096;-58
2021/03/21 00:08:58;;;;;;;4.75;3.00;;;;;;;;;;4191360;34;20186;-59
2021/03/21 00:11:24;;;;;;;3.42;2.78;;;;;;;;;;4191325;34;20138;-58
2021/03/21 00:13:49;;;;;;;4.55;3.08;;;;;;;;;;4191665;34;20125;-59
2021/03/21 00:16:16;;;;;;;3.40;2.70;;;;;;;;;;4191449;34;20485;-58
2021/03/21 00:18:42;;;;;;;6.12;3.30;;;;;;;;;;4191624;34;20106;-58
2021/03/21 00:21:10;;;;;;;3.85;3.00;;;;;;;;;;4167351;34;20214;-58
2021/03/21 00:23:36;;;;;;;3.10;2.80;;;;;;;;;;4191349;34;20129;-58
2021/03/21 00:26:02;;;;;;;4.80;3.25;;;;;;;;;;4191419;34;20513;-58
2021/03/21 00:28:30;;;;;;;3.17;2.87;;;;;;;;;;4191549;34;20121;-58
2021/03/21 00:30:56;;;;;;;7.12;2.92;;;;;;;;;;4191243;34;20545;-57
2021/03/21 00:33:24;;;;;;;3.85;2.90;;;;;;;;;;4191514;34;20130;-57
2021/03/21 00:35:53;;;;;;;4.35;2.95;;;;;;;;;;4191420;34;20114;-57
2021/03/21 00:38:29;;;;;;;3.20;2.90;;;;;;;;;;4191532;34;20122;-57
2021/03/21 00:40:56;;;;;;;5.15;3.00;;;;;;;;;;4167180;34;20122;-57
2021/03/21 00:43:22;;;;;;;3.17;2.85;;;;;;;;;;4191054;34;20136;-56
2021/03/21 00:45:48;;;;;;;3.22;2.72;;;;;;;;;;4191277;34;20205;-57
2021/03/21 00:48:15;;;;;;;4.97;3.35;;;;;;;;;;4191549;34;20217;-57
2021/03/21 00:50:41;;;;;;;4.35;2.95;;;;;;;;;;4191212;34;20554;-57
2021/03/21 00:53:07;;;;;;;3.87;2.97;;;;;;;;;;4191414;34;20210;-56
2021/03/21 00:55:33;;;;;;;4.65;2.70;;;;;;;;;;4191878;34;20097;-56
2021/03/21 00:57:59;;;;;;;8.50;3.10;;;;;;;;;;4192159;34;20105;-57
2021/03/21 01:00:28;;;;;;;5.65;2.50;;;;;;;;;;4191635;34;20204;-56
2021/03/21 01:02:54;;;;;;;2.72;2.42;;;;;;;;;;4191341;34;20618;-56
2021/03/21 01:05:27;;;;;;;4.03;2.60;;;;;;;;;;4190998;34;20114;-56
2021/03/21 01:07:54;;;;;;;3.62;2.67;;;;;;;;;;4191147;34;20110;-57
2021/03/21 01:10:22;;;;;;;4.00;2.80;;;;;;;;;;4190915;34;20090;-56
2021/03/21 01:12:51;;;;;;;4.45;3.10;;;;;;;;;;4178451;34;20521;-58
2021/03/21 01:15:17;;;;;;;6.90;3.05;;;;;;;;;;4190923;34;20125;-57
2021/03/21 01:17:43;;;;;;;4.75;3.10;;;;;;;;;;4191018;34;20209;-57
2021/03/21 01:20:09;;;;;;;4.60;3.17;;;;;;;;;;4191070;34;20126;-56
2021/03/21 01:22:36;;;;;;;5.43;3.30;;;;;;;;;;4190971;34;20114;-56
2021/03/21 01:25:12;;;;;;;5.80;3.10;;;;;;;;;;4191034;34;20098;-57
2021/03/21 01:27:42;;;;;;;3.60;2.87;;;;;;;;;;4191051;34;20148;-57
2021/03/21 01:30:08;;;;;;;3.75;2.78;;;;;;;;;;4191055;34;20452;-57
2021/03/21 01:32:34;;;;;;;3.00;2.58;;;;;;;;;;4190865;34;20122;-57
2021/03/21 01:35:00;;;;;;;5.00;2.90;;;;;;;;;;4190198;34;20125;-58
2021/03/21 01:37:26;;;;;;;5.37;2.60;;;;;;;;;;4190734;34;20126;-54
2021/03/21 01:39:52;;;;;;;5.28;2.80;;;;;;;;;;4190953;34;20118;-56
2021/03/21 01:42:18;;;;;;;4.25;2.78;;;;;;;;;;4190605;34;20559;-57
2021/03/21 01:44:44;;;;;;;3.25;2.92;;;;;;;;;;4191114;34;20114;-57
2021/03/21 01:47:26;;;;;;;4.10;2.85;;;;;;;;;;4190674;34;20094;-57
2021/03/21 01:49:51;;;;;;;3.03;2.75;;;;;;;;;;4178073;34;20823;-57
2021/03/21 01:52:41;;;;;;;2.80;2.47;;;;;;;;;;4177972;34;20154;-56
2021/03/21 01:55:09;;;;;;;6.32;3.40;;;;;;;;;;4178045;34;20106;-56
2021/03/21 01:57:35;;;;;;;9.00;2.80;;;;;;;;;;4177884;34;20188;-55
2021/03/21 02:00:04;;;;;;;4.15;2.62;;;;;;;;;;4177973;34;20541;-57
2021/03/21 02:02:30;;;;;;;5.87;2.72;;;;;;;;;;4190728;34;20172;-58
2021/03/21 02:04:56;;;;;;;4.93;2.92;;;;;;;;;;4190973;34;20102;-57
2021/03/21 02:07:47;;;;;;;5.37;2.90;;;;;;;;;;4190469;34;20117;-57
2021/03/21 02:10:40;;;;;;;8.27;3.40;;;;;;;;;;4190582;34;20217;-57
2021/03/21 02:13:29;;;;;;;3.67;2.55;;;;;;;;;;4180415;34;20514;-58
2021/03/21 02:16:08;;;;;;;4.05;2.92;;;;;;;;;;4177708;34;20114;-58
2021/03/21 02:18:52;;;;;;;6.90;3.25;;;;;;;;;;4166919;34;20214;-59
2021/03/21 02:21:45;;;;;;;3.42;2.90;;;;;;;;;;4190679;34;20106;-58
2021/03/21 02:25:00;;;;;;;4.12;2.85;;;;;;;;;;4190706;34;20114;-58
2021/03/21 02:27:37;;;;;;;7.82;3.22;;;;;;;;;;4190133;34;20217;-58
2021/03/21 02:30:18;;;;;;;3.40;2.47;;;;;;;;;;4177747;34;20621;-58
2021/03/21 02:33:05;;;;;;;5.05;3.00;;;;;;;;;;4167055;34;20559;-58
2021/03/21 02:35:59;;;;;;;3.83;2.85;;;;;;;;;;4177830;34;20199;-58
2021/03/21 02:38:32;;;;;;;5.60;3.35;;;;;;;;;;4165515;34;20134;-58
2021/03/21 02:41:07;;;;;;;8.95;2.65;;;;;;;;;;4177527;34;20166;-58
2021/03/21 02:43:42;;;;;;;5.47;2.70;;;;;;;;;;4166121;34;20105;-58
2021/03/21 02:46:15;;;;;;;4.07;2.55;;;;;;;;;;4179211;34;20442;-58
2021/03/21 02:48:54;;;;;;;3.50;3.00;;;;;;;;;;4168542;34;20110;-58
2021/03/21 02:51:28;;;;;;;4.60;2.92;;;;;;;;;;4179712;34;20209;-58
2021/03/21 02:54:01;;;;;;;4.65;2.92;;;;;;;;;;4179577;34;20634;-58
2021/03/21 02:56:28;;;;;;;7.22;3.20;;;;;;;;;;4168642;34;20114;-58
2021/03/21 02:59:23;;;;;;;4.82;2.72;;;;;;;;;;4192273;34;20518;-59
2021/03/21 03:01:58;;;;;;;3.62;2.85;;;;;;;;;;4179224;34;20188;-58
2021/03/21 03:04:30;;;;;;;9.52;3.70;;;;;;;;;;4168052;34;20110;-57
2021/03/21 03:07:09;;;;;;;5.68;3.33;;;;;;;;;;4168469;34;20177;-58
2021/03/21 03:09:39;;;;;;;3.62;3.03;;;;;;;;;;4179376;34;20121;-55
2021/03/21 03:12:16;;;;;;;5.30;3.45;;;;;;;;;;4168153;34;20118;-57
2021/03/21 03:14:47;;;;;;;5.20;3.53;;;;;;;;;;4192318;34;20145;-60
2021/03/21 03:17:37;;;;;;;9.15;3.20;;;;;;;;;;4168944;34;20201;-60
2021/03/21 03:20:39;;;;;;;3.95;3.55;;;;;;;;;;4170941;34;20106;-62
2021/03/21 03:23:30;;;;;;;5.95;4.15;;;;;;;;;;4179272;34;20137;-61
2021/03/21 03:26:26;;;;;;;5.75;3.50;;;;;;;;;;4192158;34;20109;-60
2021/03/21 03:29:46;;;;;;;4.10;3.70;;;;;;;;;;4179916;34;20118;-61
2021/03/21 03:32:28;;;;;;;4.97;3.62;;;;;;;;;;4175556;34;20117;-62
2021/03/21 03:35:08;;;;;;;5.10;3.70;;;;;;;;;;4192073;34;20130;-61
2021/03/21 03:37:39;;;;;;;7.40;3.55;;;;;;;;;;4192464;34;20218;-61
2021/03/21 03:40:13;;;;;;;5.05;3.42;;;;;;;;;;4179223;34;20121;-61
2021/03/21 03:43:26;;;;;;;3.97;3.33;;;;;;;;;;4170824;34;20118;-61
2021/03/21 03:46:31;;;;;;;6.40;3.60;;;;;;;;;;4193126;34;20203;-61
2021/03/21 03:49:20;;;;;;;4.87;3.17;;;;;;;;;;4179671;34;20694;-62
2021/03/21 03:52:39;;;;;;;6.62;3.60;;;;;;;;;;4180487;34;20102;-62
2021/03/21 03:56:05;;;;;;;8.07;3.58;;;;;;;;;;4192907;34;20121;-61
2021/03/21 03:59:14;;;;;;;9.20;3.72;;;;;;;;;;4177631;34;20133;-63
2021/03/21 04:01:57;;;;;;;6.40;3.62;;;;;;;;;;4191572;34;20145;-63
2021/03/21 04:04:35;;;;;;;6.78;3.90;;;;;;;;;;4178740;34;20126;-61
2021/03/21 04:07:16;;;;;;;6.50;4.07;;;;;;;;;;4191638;34;20123;-60
2021/03/21 04:09:49;;;;;;;6.60;3.60;;;;;;;;;;4191599;34;20118;-63
2021/03/21 04:12:30;;;;;;;5.10;3.67;;;;;;;;;;4178779;34;20179;-63
2021/03/21 04:15:06;;;;;;;6.07;3.78;;;;;;;;;;4179101;34;20106;-62
2021/03/21 04:17:53;;;;;;;6.20;3.08;;;;;;;;;;4179170;34;20486;-61
2021/03/21 04:20:31;;;;;;;5.05;3.30;;;;;;;;;;4191739;34;20090;-62
2021/03/21 04:22:58;;;;;;;4.25;3.30;;;;;;;;;;4178973;34;20575;-59
2021/03/21 04:25:26;;;;;;;4.15;3.20;;;;;;;;;;4191633;34;20121;-62
2021/03/21 04:28:02;;;;;;;3.70;3.22;;;;;;;;;;4178643;34;20122;-63
2021/03/21 04:30:30;;;;;;;3.20;2.90;;;;;;;;;;4178528;34;20117;-63
2021/03/21 04:32:56;;;;;;;3.35;3.05;;;;;;;;;;4178535;34;20114;-62
2021/03/21 04:35:30;;;;;;;3.30;2.83;;;;;;;;;;4178601;34;20130;-62
2021/03/21 04:37:59;;;;;;;6.15;3.28;;;;;;;;;;4178969;34;20134;-64
2021/03/21 04:40:26;;;;;;;4.30;3.33;;;;;;;;;;4178779;34;20218;-64
2021/03/21 04:42:56;;;;;;;5.43;3.00;;;;;;;;;;4178540;34;20099;-64
2021/03/21 04:45:25;;;;;;;3.50;2.80;;;;;;;;;;4178499;34;20544;-63
2021/03/21 04:47:56;;;;;;;3.40;2.92;;;;;;;;;;4178312;34;20462;-64
2021/03/21 04:50:22;;;;;;;3.08;2.78;;;;;;;;;;4178755;34;20121;-66
2021/03/21 04:52:53;;;;;;;2.97;2.70;;;;;;;;;;4178607;34;20137;-63
2021/03/21 04:55:32;;;;;;;6.22;3.53;;;;;;;;;;4179164;34;20130;-63
2021/03/21 04:57:58;;;;;;;5.22;3.40;;;;;;;;;;4178685;34;20769;-63
2021/03/21 05:00:28;;;;;;;5.95;3.30;;;;;;;;;;4178464;34;20160;-64
2021/03/21 05:02:57;;;;;;;5.07;2.80;;;;;;;;;;4178215;34;20205;-60
2021/03/21 05:05:29;;;;;;;3.78;3.33;;;;;;;;;;4178580;34;20133;-61
2021/03/21 05:07:55;;;;;;;5.37;3.10;;;;;;;;;;4178133;34;20129;-62
2021/03/21 05:10:22;;;;;;;5.90;2.85;;;;;;;;;;4190693;34;20227;-60
2021/03/21 05:13:10;;;;;;;4.72;2.85;;;;;;;;;;4191120;34;20105;-61
2021/03/21 05:15:53;;;;;;;4.05;3.37;;;;;;;;;;4179148;34;20109;-59
2021/03/21 05:18:44;;;;;;;4.10;3.65;;;;;;;;;;4167509;34;20637;-59
2021/03/21 05:21:17;;;;;;;4.10;2.78;;;;;;;;;;4168827;34;20121;-60
2021/03/21 05:24:01;;;;;;;3.45;2.90;;;;;;;;;;4191160;34;20126;-61
2021/03/21 05:26:49;;;;;;;3.72;3.08;;;;;;;;;;4190975;34;20186;-60
2021/03/21 05:29:35;;;;;;;3.15;2.85;;;;;;;;;;4180429;34;20110;-59
2021/03/21 05:32:01;;;;;;;5.18;3.83;;;;;;;;;;4178161;34;20105;-61
2021/03/21 05:34:30;;;;;;;4.20;3.12;;;;;;;;;;4178445;34;20130;-60
2021/03/21 05:37:24;;;;;;;5.82;3.35;;;;;;;;;;4166760;34;20095;-61
2021/03/21 05:40:05;;;;;;;4.53;3.08;;;;;;;;;;4179649;34;20202;-61
2021/03/21 05:42:37;;;;;;;2.78;2.50;;;;;;;;;;4178502;34;20117;-60
2021/03/21 05:45:10;;;;;;;3.25;2.92;;;;;;;;;;4189762;34;20121;-55
2021/03/21 05:48:20;;;;;;;2.60;2.40;;;;;;;;;;4178002;34;20114;-57
2021/03/21 05:50:53;;;;;;;4.25;2.62;;;;;;;;;;4149692;34;20548;-58
2021/03/21 05:53:37;;;;;;;3.30;2.90;;;;;;;;;;4168717;34;20109;-55
2021/03/21 05:56:31;;;;;;;3.67;3.30;;;;;;;;;;4190626;34;20164;-55
2021/03/21 05:59:26;;;;;;;4.32;3.28;;;;;;;;;;4190764;34;20454;-58
2021/03/21 06:02:12;;;;;;;5.12;3.05;;;;;;;;;;4179626;34;20174;-59
2021/03/21 06:04:57;;;;;;;5.80;3.50;;;;;;;;;;4178377;34;20113;-58
2021/03/21 06:07:47;;;;;;;3.47;2.92;;;;;;;;;;4190530;34;20118;-59
2021/03/21 06:10:38;;;;;;;7.07;3.00;;;;;;;;;;4177847;34;20118;-60
2021/03/21 06:13:28;;;;;;;3.47;3.17;;;;;;;;;;4190986;34;20189;-59
2021/03/21 06:15:55;;;;;;;5.37;3.22;;;;;;;;;;4177800;34;20117;-60
2021/03/21 06:18:35;;;;;;;5.50;3.08;;;;;;;;;;4190498;34;20106;-58
2021/03/21 06:21:22;;;;;;;5.43;3.25;;;;;;;;;;4178988;34;20118;-56
2021/03/21 06:24:26;;;;;;;3.45;2.70;;;;;;;;;;4192642;34;20455;-59
2021/03/21 06:27:14;;;;;;;3.78;2.70;;;;;;;;;;4192397;34;20134;-57
2021/03/21 06:30:05;;;;;;;3.22;2.72;;;;;;;;;;4180548;34;20119;-57
2021/03/21 06:32:40;;;;;;;3.60;2.67;;;;;;;;;;4179948;34;20534;-57
2021/03/21 06:35:25;;;;;;;3.12;2.83;;;;;;;;;;4192640;34;20198;-59
2021/03/21 06:38:18;;;;;;;2.90;2.60;;;;;;;;;;4179768;34;20292;-56
2021/03/21 06:41:21;;;;;;;4.87;3.10;;;;;;;;;;4181377;34;20103;-59
2021/03/21 06:44:30;;;;;;;5.12;2.70;;;;;;;;;;4192640;34;20157;-56
2021/03/21 06:47:17;;;;;;;3.33;3.03;;;;;;;;;;4178649;34;20117;-60
2021/03/21 06:50:22;;;;;;;3.00;2.70;;;;;;;;;;4178761;34;20209;-59
2021/03/21 06:53:16;;;;;;;3.10;2.62;;;;;;;;;;4162499;34;20129;-58
2021/03/21 06:55:49;;;;;;;3.35;2.67;;;;;;;;;;4178614;34;20115;-60
2021/03/21 06:58:40;;;;;;;2.83;2.62;;;;;;;;;;4165928;34;20094;-59
2021/03/21 07:01:34;;;;;;;2.97;2.45;;;;;;;;;;4178651;34;20226;-57
2021/03/21 07:04:34;;;;;;;4.40;2.42;;;;;;;;;;4177073;34;20202;-58
2021/03/21 07:07:22;;;;;;;3.90;2.40;;;;;;;;;;4147689;34;20199;-58
2021/03/21 07:09:56;;;;;;;3.87;2.40;;;;;;;;;;4178689;34;20110;-63
2021/03/21 07:12:41;;;;;;;2.60;2.40;;;;;;;;;;4165970;34;20423;-64
2021/03/21 07:15:25;;;;;;;2.90;2.30;;;;;;;;;;4178760;34;20324;-63
2021/03/21 07:18:09;;;;;;;3.00;2.70;;;;;;;;;;4165674;34;20102;-62
2021/03/21 07:20:47;;;;;;;3.08;2.78;;;;;;;;;;4177092;34;20205;-64
2021/03/21 07:23:25;;;;;;;4.12;2.42;;;;;;;;;;4179626;34;20517;-62
2021/03/21 07:26:10;;;;;;;2.40;2.20;;;;;;;;;;4179295;34;20108;-62
2021/03/21 07:28:59;;;;;;;3.83;2.53;;;;;;;;;;4192110;34;20538;-65
2021/03/21 07:31:34;;;;;;;2.67;2.47;;;;;;;;;;4191427;34;20122;-64
2021/03/21 07:34:38;;;;;;;3.17;2.43;;;;;;;;;;4191746;34;20186;-62
2021/03/21 07:37:26;;;;;;;2.72;2.50;;;;;;;;;;4179317;34;20660;-60
2021/03/21 07:40:14;;;;;;;2.83;2.50;;;;;;;;;;4191860;34;20191;-62
2021/03/21 07:43:17;;;;;;;4.28;3.00;;;;;;;;;;4179258;34;20523;-60
2021/03/21 07:46:02;;;;;;;3.47;2.58;;;;;;;;;;4191944;34;20125;-60
2021/03/21 07:48:34;;;;;;;2.95;2.58;;;;;;;;;;4191630;34;20173;-62
2021/03/21 07:51:07;;;;;;;4.70;2.75;;;;;;;;;;4178915;34;20101;-61
2021/03/21 07:54:31;;;;;;;3.75;2.70;;;;;;;;;;4179555;34;20177;-63
2021/03/21 07:57:03;;;;;;;4.05;2.60;;;;;;;;;;4175351;34;20125;-63
2021/03/21 07:59:31;;;;;;;3.53;2.50;;;;;;;;;;4178966;34;20151;-62
2021/03/21 08:01:57;;;;;;;2.50;2.30;;;;;;;;;;4178902;34;20122;-61
2021/03/21 08:04:29;;;;;;;4.90;2.45;;;;;;;;;;4191866;34;20229;-61
2021/03/21 08:07:13;;;;;;;4.68;2.70;;;;;;;;;;4191632;34;20117;-61
2021/03/21 08:09:53;;;;;;;3.05;2.62;;;;;;;;;;4192022;34;20186;-62
2021/03/21 08:12:22;;;;;;;3.25;2.62;;;;;;;;;;4178863;34;20105;-62
2021/03/21 08:14:49;;;;;;;2.83;2.62;;;;;;;;;;4191538;34;20541;-64
2021/03/21 08:17:37;;;;;;;2.60;2.40;;;;;;;;;;4179016;34;20102;-65
2021/03/21 08:20:14;;;;;;;2.92;2.53;;;;;;;;;;4191478;34;20129;-64
2021/03/21 08:22:40;;;;;;;3.92;2.47;;;;;;;;;;4179461;34;20118;-63
2021/03/21 08:25:27;;;;;;;3.12;2.67;;;;;;;;;;4179049;34;20618;-63
2021/03/21 08:27:54;;;;;;;3.00;2.67;;;;;;;;;;4191436;34;20101;-62
2021/03/21 08:30:21;;;;;;;3.20;2.60;;;;;;;;;;4191406;34;20520;-63
2021/03/21 08:33:01;;;;;;;4.47;2.80;;;;;;;;;;4178730;34;20504;-62
2021/03/21 08:35:31;;;;;;;4.22;3.17;;;;;;;;;;4191271;34;20471;-63
2021/03/21 08:38:01;;;;;;;3.47;2.45;;;;;;;;;;4191742;34;20221;-62
2021/03/21 08:40:37;;;;;;;3.75;3.10;;;;;;;;;;4178770;34;20113;-63
2021/03/21 08:43:26;;;;;;;3.12;2.80;;;;;;;;;;4178377;34;20230;-64
2021/03/21 08:45:55;;;;;;;3.05;2.75;;;;;;;;;;4180073;34;20149;-66
2021/03/21 08:48:24;;;;;;;2.60;2.40;;;;;;;;;;4191326;34;20182;-64
2021/03/21 08:50:54;;;;;;;3.05;2.70;;;;;;;;;;4178962;34;20112;-64
2021/03/21 08:53:24;;;;;;;4.78;2.87;;;;;;;;;;4178839;34;20122;-61
2021/03/21 08:56:08;;;;;;;3.45;2.72;;;;;;;;;;4178572;34;20130;-63
2021/03/21 08:58:34;;;;;;;4.07;2.67;;;;;;;;;;4180227;34;20200;-61
2021/03/21 09:01:17;;;;;;;3.67;3.25;;;;;;;;;;4190826;34;20210;-60
2021/03/21 09:03:43;;;;;;;3.20;2.90;;;;;;;;;;4179602;34;20134;-59
2021/03/21 09:06:38;;;;;;;3.45;2.87;;;;;;;;;;4191134;34;20145;-59
2021/03/21 09:09:28;;;;;;;3.10;2.80;;;;;;;;;;4180543;34;20510;-60
2021/03/21 09:11:55;;;;;;;3.03;2.62;;;;;;;;;;4178923;34;20141;-59
2021/03/21 09:14:33;;;;;;;3.12;2.78;;;;;;;;;;4190842;34;20110;-61
2021/03/21 09:17:04;;;;;;;4.18;3.28;;;;;;;;;;4191070;34;20126;-62
2021/03/21 09:19:35;;;;;;;3.42;3.12;;;;;;;;;;4190777;34;20115;-58
2021/03/21 09:22:06;;;;;;;3.87;3.00;;;;;;;;;;4190919;34;20117;-64
2021/03/21 09:24:36;;;;;;;5.47;3.28;;;;;;;;;;4178280;34;20141;-63
2021/03/21 09:27:35;;;;;;;5.68;2.97;;;;;;;;;;4190970;34;20122;-61
2021/03/21 09:30:24;;;;;;;2.83;2.53;;;;;;;;;;4175652;34;20294;-63
2021/03/21 09:32:54;;;;;;;3.45;2.97;;;;;;;;;;4185892;34;20530;-63
2021/03/21 09:35:34;;;;;;;2.97;2.67;;;;;;;;;;4166963;34;20122;-63
2021/03/21 09:38:06;;;;;;;3.00;2.70;;;;;;;;;;4178061;34;20102;-62
2021/03/21 09:40:44;;;;;;;3.75;2.80;;;;;;;;;;4166931;34;20141;-63
2021/03/21 09:43:16;;;;;;;3.58;2.80;;;;;;;;;;4190958;34;20117;-61
2021/03/21 09:45:45;;;;;;;3.50;2.85;;;;;;;;;;4178219;34;20136;-62
2021/03/21 09:48:39;;;;;;;3.53;2.55;;;;;;;;;;4178092;34;20458;-59
2021/03/21 09:51:11;;;;;;;4.25;2.80;;;;;;;;;;4159322;34;20198;-59
2021/03/21 09:53:56;;;;;;;3.28;2.83;;;;;;;;;;4177708;34;20125;-61
2021/03/21 09:56:28;;;;;;;3.42;3.12;;;;;;;;;;4190059;34;20126;-58
2021/03/21 09:59:22;;;;;;;5.28;2.92;;;;;;;;;;4190760;34;20114;-58
2021/03/21 10:02:14;;;;;;;3.35;2.50;;;;;;;;;;4190269;34;20189;-59
2021/03/21 10:05:00;;;;;;;3.45;3.10;;;;;;;;;;4182962;34;20202;-54
2021/03/21 10:07:57;;;;;;;4.35;2.50;;;;;;;;;;4177276;34;20121;-59
2021/03/21 10:10:28;;;;;;;3.80;3.05;;;;;;;;;;4178062;34;20478;-55
2021/03/21 10:12:54;;;;;;;4.32;3.17;;;;;;;;;;4177673;34;20431;-59
2021/03/21 10:15:25;;;;;;;3.78;2.80;;;;;;;;;;4166732;34;20507;-60
2021/03/21 10:17:59;;;;;;;3.87;2.60;;;;;;;;;;4178612;34;20149;-57
2021/03/21 10:21:20;;;;;;;5.93;3.03;;;;;;;;;;4190370;34;20130;-60
2021/03/21 10:23:56;;;;;;;3.62;3.05;;;;;;;;;;4147148;34;20120;-59
2021/03/21 10:26:24;;;;;;;3.47;2.92;;;;;;;;;;4184411;34;20606;-58
2021/03/21 10:28:56;;;;;;;5.30;3.37;;;;;;;;;;4190385;34;20110;-58
2021/03/21 10:31:22;;;;;;;3.25;2.78;;;;;;;;;;4190005;34;20118;-59
2021/03/21 10:33:49;;;;;;;3.55;3.15;;;;;;;;;;4190236;34;20137;-59
2021/03/21 10:36:37;;;;;;;3.10;2.80;;;;;;;;;;4177532;34;20102;-59
2021/03/21 10:39:24;;;;;;;3.00;2.70;;;;;;;;;;4190182;34;20549;-59
2021/03/21 10:42:03;;;;;;;2.60;2.40;;;;;;;;;;4168436;34;20149;-58
2021/03/21 10:44:32;;;;;;;4.03;2.20;;;;;;;;;;4177635;34;20118;-59
2021/03/21 10:47:00;;;;;;;3.55;2.95;;;;;;;;;;4189955;34;20589;-60
2021/03/21 10:50:01;;;;;;;2.92;2.65;;;;;;;;;;4177433;34;20121;-60
2021/03/21 10:52:35;;;;;;;3.10;2.78;;;;;;;;;;4189884;34;20210;-60
2021/03/21 10:55:14;;;;;;;3.35;2.80;;;;;;;;;;4189939;34;20132;-60
2021/03/21 10:57:46;;;;;;;4.80;3.50;;;;;;;;;;4190199;34;20113;-58
2021/03/21 11:00:30;;;;;;;3.95;2.87;;;;;;;;;;4190017;34;20303;-59
2021/03/21 11:03:02;;;;;;;4.95;2.70;;;;;;;;;;4189972;34;20138;-59
2021/03/21 11:05:40;;;;;;;3.90;3.20;;;;;;;;;;4189951;34;20228;-63
2021/03/21 11:08:12;;;;;;;3.22;2.60;;;;;;;;;;4191353;34;20138;-61
2021/03/21 11:11:12;;;;;;;3.12;2.47;;;;;;;;;;4192381;34;20151;-60
2021/03/21 11:13:38;;;;;;;2.47;2.20;;;;;;;;;;4192120;34;20095;-60
2021/03/21 11:16:11;;;;;;;2.60;2.40;;;;;;;;;;4192083;34;20125;-60
2021/03/21 11:18:37;;;;;;;2.85;2.55;;;;;;;;;;4192044;34;20118;-58
2021/03/21 11:21:19;;;;;;;2.67;2.47;;;;;;;;;;4192097;34;20118;-60
2021/03/21 11:23:52;;;;;;;3.22;2.25;;;;;;;;;;4192072;34;20185;-60
2021/03/21 11:26:24;;;;;;;2.50;2.20;;;;;;;;;;4168610;34;20145;-60
2021/03/21 11:29:06;;;;;;;3.90;2.12;;;;;;;;;;4191931;34;20201;-60
2021/03/21 11:31:43;;;;;;;2.28;1.90;;;;;;;;;;4180750;34;20205;-59
2021/03/21 11:34:27;;;;;;;3.17;2.53;;;;;;;;;;4192040;34;20447;-60
2021/03/21 11:37:09;;;;;;;2.70;2.33;;;;;;;;;;4191782;34;20470;-59
2021/03/21 11:39:47;;;;;;;2.40;2.10;;;;;;;;;;4178832;34;20107;-58
2021/03/21 11:42:22;;;;;;;5.62;2.40;;;;;;;;;;4179307;34;20183;-61
2021/03/21 11:44:50;;;;;;;4.50;2.30;;;;;;;;;;4191815;34;20086;-61
2021/03/21 11:47:25;;;;;;;3.00;2.20;;;;;;;;;;4191445;34;20512;-61
2021/03/21 11:49:51;;;;;;;2.40;2.20;;;;;;;;;;4191736;34;20144;-59
2021/03/21 11:52:17;;;;;;;4.25;2.50;;;;;;;;;;4167629;34;20518;-60
2021/03/21 11:54:44;;;;;;;2.85;2.17;;;;;;;;;;4165961;34;20568;-59
2021/03/21 11:57:22;;;;;;;2.85;2.25;;;;;;;;;;4179228;34;20594;-60
2021/03/21 11:59:52;;;;;;;5.40;2.08;;;;;;;;;;4179118;34;20261;-60
2021/03/21 12:02:40;;;;;;;3.08;2.20;;;;;;;;;;4178860;34;20169;-59
2021/03/21 12:05:16;;;;;;;3.70;2.70;;;;;;;;;;4179105;34;20200;-60
2021/03/21 12:07:42;;;;;;;6.75;5.10;;;;;;;;;;4178598;34;20111;-60
2021/03/21 12:10:47;;;;;;;5.82;3.45;;;;;;;;;;4191751;34;20097;-63
2021/03/21 12:13:43;;;;;;;3.72;2.72;;;;;;;;;;4134518;34;20162;-61
2021/03/21 12:16:38;;;;;;;7.03;4.65;;;;;;;;;;4182275;34;20106;-59
2021/03/21 12:19:06;;;;;;;4.25;3.10;;;;;;;;;;4191397;34;20133;-62
2021/03/21 12:21:37;;;;;;;3.15;2.22;;;;;;;;;;4191721;34;20192;-63
2021/03/21 12:24:10;;;;;;;2.90;2.60;;;;;;;;;;4191736;34;20102;-61
2021/03/21 12:26:37;;;;;;;5.40;3.03;;;;;;;;;;4191247;34;20207;-62
2021/03/21 12:29:25;;;;;;;2.70;1.95;;;;;;;;;;4191702;34;20094;-61
2021/03/21 12:32:16;;;;;;;2.47;2.12;;;;;;;;;;4191179;34;20514;-61
2021/03/21 12:34:45;;;;;;;2.95;2.20;;;;;;;;;;4191387;34;20525;-61
2021/03/21 12:37:22;;;;;;;3.95;1.90;;;;;;;;;;4191057;34;20132;-61
2021/03/21 12:39:52;;;;;;;1.85;1.67;;;;;;;;;;4178404;34;20179;-61
2021/03/21 12:42:27;;;;;;;2.10;1.87;;;;;;;;;;4191369;34;20229;-61
2021/03/21 12:45:25;;;;;;;2.75;1.80;;;;;;;;;;4191463;34;20471;-62
2021/03/21 12:47:54;;;;;;;1.75;1.60;;;;;;;;;;4191260;34;20534;-62
2021/03/21 12:50:36;;;;;;;2.47;1.77;;;;;;;;;;4191233;34;20197;-62
2021/03/21 12:53:08;;;;;;;3.10;2.70;;;;;;;;;;4191300;34;20118;-61
2021/03/21 12:55:34;;;;;;;3.97;2.35;;;;;;;;;;4190997;34;20129;-61
2021/03/21 12:58:00;;;;;;;5.35;2.78;;;;;;;;;;4191096;34;20121;-61
2021/03/21 13:00:28;;;;;;;3.70;2.85;;;;;;;;;;4190791;34;20118;-61
2021/03/21 13:02:55;;;;;;;3.87;2.90;;;;;;;;;;4190995;34;20117;-59
2021/03/21 13:05:31;;;;;;;3.92;3.30;;;;;;;;;;4190943;34;20118;-61
2021/03/21 13:07:57;;;;;;;3.72;2.90;;;;;;;;;;4191144;34;20107;-61
2021/03/21 13:10:23;;;;;;;4.35;3.00;;;;;;;;;;4178020;34;20455;-62
2021/03/21 13:12:50;;;;;;;4.78;3.62;;;;;;;;;;4178585;34;20113;-61
2021/03/21 13:15:17;;;;;;;3.97;2.78;;;;;;;;;;4190990;34;20222;-61
2021/03/21 13:17:43;;;;;;;4.03;3.10;;;;;;;;;;4190895;34;20114;-60
2021/03/21 13:20:11;;;;;;;5.87;5.28;;;;;;;;;;4190809;34;20130;-61
2021/03/21 13:22:37;;;;;;;6.10;3.78;;;;;;;;;;4190714;34;20126;-60
2021/03/21 13:25:04;;;;;;;5.15;3.92;;;;;;;;;;4190963;34;20109;-60
2021/03/21 13:27:30;;;;;;;3.65;3.08;;;;;;;;;;4178261;34;20134;-61
2021/03/21 13:29:56;;;;;;;5.35;3.50;;;;;;;;;;4190099;34;20209;-61
2021/03/21 13:32:28;;;;;;;4.68;3.10;;;;;;;;;;4178214;34;20106;-61
2021/03/21 13:34:54;;;;;;;3.33;3.03;;;;;;;;;;4190992;34;20537;-61
2021/03/21 13:37:23;;;;;;;4.60;3.75;;;;;;;;;;4190548;34;20154;-61
2021/03/21 13:39:52;;;;;;;6.93;3.87;;;;;;;;;;4190961;34;20534;-61
2021/03/21 13:42:19;;;;;;;4.05;3.55;;;;;;;;;;4190671;34;20133;-62
2021/03/21 13:44:45;;;;;;;4.45;3.58;;;;;;;;;;4190835;34;20109;-61
2021/03/21 13:47:12;;;;;;;4.18;3.42;;;;;;;;;;4190853;34;20142;-61
2021/03/21 13:49:37;;;;;;;4.90;3.42;;;;;;;;;;4190858;34;20516;-59
2021/03/21 13:52:05;;;;;;;4.47;4.03;;;;;;;;;;4190483;34;20122;-60
2021/03/21 13:54:31;;;;;;;5.12;4.28;;;;;;;;;;4190813;34;20210;-61
2021/03/21 13:56:57;;;;;;;6.03;5.22;;;;;;;;;;4177854;34;20207;-60
2021/03/21 13:59:23;;;;;;;8.95;7.00;;;;;;;;;;4190513;34;20615;-61
2021/03/21 14:01:49;;;;;;;6.43;5.68;;;;;;;;;;4190528;34;20210;-60
2021/03/21 14:04:15;;;;;;;7.18;5.15;;;;;;;;;;4190696;34;20526;-62
2021/03/21 14:06:41;;;;;;;5.05;3.70;;;;;;;;;;4190393;34;20121;-62
2021/03/21 14:09:07;;;;;;;7.20;4.00;;;;;;;;;;4190844;34;20129;-62
2021/03/21 14:11:33;;;;;;;4.85;3.70;;;;;;;;;;4190740;34;20122;-62
2021/03/21 14:13:59;;;;;;;6.12;4.05;;;;;;;;;;4177734;34;20133;-62
2021/03/21 14:16:25;;;;;;;6.12;4.00;;;;;;;;;;4190545;34;20550;-61
2021/03/21 14:18:51;;;;;;;8.02;5.65;;;;;;;;;;4190390;34;20121;-61
2021/03/21 14:21:17;;;;;;;6.22;5.45;;;;;;;;;;4190419;34;20530;-60
2021/03/21 14:23:43;;;;;;;5.65;4.95;;;;;;;;;;4190524;34;20101;-61
2021/03/21 14:26:09;;;;;;;5.65;3.70;;;;;;;;;;4177581;34;20114;-61
2021/03/21 14:28:35;;;;;;;6.03;4.97;;;;;;;;;;4190350;34;20153;-60
2021/03/21 14:31:05;;;;;;;7.65;4.35;;;;;;;;;;4177828;34;20110;-60
2021/03/21 14:33:33;;;;;;;3.90;3.50;;;;;;;;;;4190202;34;20104;-63
2021/03/21 14:35:59;;;;;;;10.13;8.88;;;;;;;;;;4177820;34;20106;-62
2021/03/21 14:38:25;;;;;;;16.95;14.50;;;;;;;;;;4190398;34;20226;-62
2021/03/21 14:40:52;;;;;;;6.35;5.45;;;;;;;;;;4178100;34;20115;-63
2021/03/21 14:43:18;;;;;;;7.37;6.18;;;;;;;;;;4192249;34;20522;-62
2021/03/21 14:45:44;;;;;;;10.52;8.30;;;;;;;;;;4192210;34;20100;-63
2021/03/21 14:48:10;;;;;;;5.53;4.43;;;;;;;;;;4192389;34;20094;-62
2021/03/21 14:50:36;;;;;;;8.68;6.80;;;;;;;;;;4192064;34;20106;-60
2021/03/21 14:53:02;;;;;;;9.10;7.18;;;;;;;;;;4192577;34;20122;-60
2021/03/21 14:55:31;;;;;;;7.87;5.60;;;;;;;;;;4192168;34;20091;-61
2021/03/21 14:57:57;;;;;;;8.48;6.00;;;;;;;;;;4179553;34;20110;-61
2021/03/21 15:00:25;;;;;;;6.93;5.10;;;;;;;;;;4192029;34;20511;-61
2021/03/21 15:02:51;;;;;;;6.22;4.55;;;;;;;;;;4192496;34;20108;-63
2021/03/21 15:05:17;;;;;;;4.90;3.80;;;;;;;;;;4192133;34;20102;-61
2021/03/21 15:07:49;;;;;;;7.03;3.95;;;;;;;;;;4191865;34;20209;-61
2021/03/21 15:10:15;;;;;;;6.15;4.60;;;;;;;;;;4192325;34;20161;-64
2021/03/21 15:12:41;;;;;;;9.77;4.45;;;;;;;;;;4192134;34;20130;-63
2021/03/21 15:15:20;;;;;;;6.00;4.53;;;;;;;;;;4179537;34;20122;-62
2021/03/21 15:17:46;;;;;;;4.47;3.35;;;;;;;;;;4179343;34;20099;-62
2021/03/21 15:20:13;;;;;;;3.78;3.17;;;;;;;;;;4179132;34;20117;-62
2021/03/21 15:22:39;;;;;;;6.53;4.10;;;;;;;;;;4179075;34;20108;-62
2021/03/21 15:25:05;;;;;;;5.15;4.03;;;;;;;;;;4191938;34;20114;-59
2021/03/21 15:27:31;;;;;;;6.53;4.35;;;;;;;;;;4191761;34;20110;-64
2021/03/21 15:29:57;;;;;;;8.30;5.25;;;;;;;;;;4192027;34;20202;-62
2021/03/21 15:32:23;;;;;;;6.75;5.00;;;;;;;;;;4191784;34;20197;-63
2021/03/21 15:34:49;;;;;;;7.12;5.00;;;;;;;;;;4191664;34;20121;-62
2021/03/21 15:37:15;;;;;;;5.65;5.05;;;;;;;;;;4192143;34;20102;-63
2021/03/21 15:39:41;;;;;;;5.60;5.00;;;;;;;;;;4179244;34;20164;-61
2021/03/21 15:42:07;;;;;;;6.53;5.00;;;;;;;;;;4191599;34;20137;-61